Time;durP1;ratioP1;P1;durP2;ratioP2;P2;SDS_P1;SDS_P2;PMS_P1;PMS_P2;Temp;Humidity;BMP_temperature;BMP_pressure;BME280_temperature;BME280_humidity;BME280_pressure;Samples;Min_cycle;Max_cycle;Signal;HPM_P1;HPM_P2
2022/01/21 00:01:37;;;;;;;10.77;5.55;;;;;;;1.71;78.98;101881.56;4943413;29;20494;-80
2022/01/21 00:04:04;;;;;;;11.90;5.63;;;;;;;1.75;78.53;101882.06;4956401;29;20417;-81
2022/01/21 00:06:30;;;;;;;19.25;6.07;;;;;;;1.71;78.45;101873.56;4954679;29;20410;-81
2022/01/21 00:08:55;;;;;;;16.58;5.50;;;;;;;1.58;79.30;101873.09;4954597;29;20870;-80
2022/01/21 00:11:23;;;;;;;13.73;5.80;;;;;;;1.60;79.69;101881.78;4953405;29;20420;-80
2022/01/21 00:13:48;;;;;;;13.77;5.10;;;;;;;1.60;79.50;101881.78;4955588;29;20409;-80
2022/01/21 00:16:17;;;;;;;13.55;5.82;;;;;;;1.52;79.55;101877.19;4950130;29;20417;-80
2022/01/21 00:19:37;;;;;;;12.88;4.63;;;;;;;1.49;79.82;101871.31;4946609;29;20853;-80
2022/01/21 00:30:13;;;;;;;14.43;4.87;;;;;;;1.25;81.31;101884.44;4952499;29;20449;-80
2022/01/21 00:32:44;;;;;;;17.23;5.22;;;;;;;1.28;81.17;101881.44;4944696;29;20437;-80
2022/01/21 00:35:10;;;;;;;15.35;5.28;;;;;;;1.35;81.23;101869.19;4954098;29;20421;-78
2022/01/21 00:37:36;;;;;;;12.02;4.60;;;;;;;1.35;81.13;101866.50;4955416;29;20928;-78
2022/01/21 00:40:03;;;;;;;7.95;3.90;;;;;;;1.29;80.78;101875.09;4953844;29;20472;-78
2022/01/21 00:45:06;;;;;;;12.52;4.72;;;;;;;1.26;80.75;101876.25;4945437;29;20543;-78
2022/01/21 00:47:32;;;;;;;17.05;5.15;;;;;;;1.29;80.71;101880.44;4955477;29;20508;-80
2022/01/21 00:49:57;;;;;;;15.17;4.77;;;;;;;1.29;79.95;101881.28;4953383;29;21024;-80
2022/01/21 00:52:22;;;;;;;15.30;5.87;;;;;;;1.32;79.61;101886.31;4955550;29;20409;-80
2022/01/21 00:54:48;;;;;;;13.60;5.15;;;;;;;1.38;79.63;101883.03;4954828;29;20429;-79
2022/01/21 00:57:13;;;;;;;13.80;4.78;;;;;;;1.27;80.13;101890.44;4955361;29;20426;-80
2022/01/21 00:59:38;;;;;;;15.57;5.00;;;;;;;1.25;80.17;101892.44;4953332;29;20417;-80
2022/01/21 01:02:05;;;;;;;11.67;4.97;;;;;;;1.22;80.38;101892.75;4954012;29;20492;-79
2022/01/21 01:04:30;;;;;;;14.73;5.00;;;;;;;1.18;80.36;101894.03;4955367;29;20444;-79
2022/01/21 01:06:56;;;;;;;17.20;5.43;;;;;;;1.18;80.43;101899.34;4955103;29;20956;-79
2022/01/21 01:09:21;;;;;;;12.70;4.57;;;;;;;1.17;81.01;101903.84;4954804;28;20943;-79
2022/01/21 01:20:02;;;;;;;11.55;4.13;;;;;;;1.18;80.96;101912.72;4953104;29;20483;-79
2022/01/21 01:22:40;;;;;;;12.90;5.10;;;;;;;1.26;80.93;101912.78;4950975;29;20448;-79
2022/01/21 01:27:51;;;;;;;11.98;4.68;;;;;;;1.30;80.50;101915.03;4955495;29;20443;-79
2022/01/21 01:30:18;;;;;;;11.07;4.70;;;;;;;1.21;80.86;101913.25;4933366;29;20424;-79
2022/01/21 01:32:49;;;;;;;13.60;4.22;;;;;;;1.18;80.94;101918.06;4955123;29;20843;-80
2022/01/21 01:35:18;;;;;;;12.63;4.82;;;;;;;1.11;81.12;101924.97;4951609;29;20459;-79
2022/01/21 01:50:54;;;;;;;14.40;3.88;;;;;;;1.18;80.50;101904.69;4951507;29;20554;-79
2022/01/21 01:53:23;;;;;;;11.68;3.97;;;;;;;1.15;81.18;101907.66;4953819;29;20453;-79
2022/01/21 01:55:49;;;;;;;13.25;5.30;;;;;;;1.08;81.07;101904.75;4944123;29;20879;-79
2022/01/21 01:58:15;;;;;;;12.15;4.55;;;;;;;1.06;81.27;101909.38;4953689;29;20418;-79
2022/01/21 02:00:42;;;;;;;14.47;5.57;;;;;;;1.08;81.57;101910.09;4949610;29;20426;-79
2022/01/21 02:03:10;;;;;;;9.75;4.80;;;;;;;1.15;81.70;101913.84;4947407;29;20454;-80
2022/01/21 02:05:36;;;;;;;14.20;4.60;;;;;;;1.19;81.49;101909.88;4951496;29;20481;-80
2022/01/21 02:08:02;;;;;;;18.40;5.28;;;;;;;1.27;81.41;101915.31;4953277;29;20441;-80
2022/01/21 02:10:27;;;;;;;14.73;4.90;;;;;;;1.30;81.50;101907.00;4953070;29;20453;-80
2022/01/21 02:13:04;;;;;;;14.73;5.03;;;;;;;1.33;81.57;101900.53;4953516;29;20781;-80
2022/01/21 02:15:30;;;;;;;14.35;5.03;;;;;;;1.33;80.96;101901.38;4943613;29;21484;-79
2022/01/21 02:23:26;;;;;;;12.90;5.43;;;;;;;1.19;80.84;101898.34;4943711;29;20404;-80
2022/01/21 02:25:51;;;;;;;10.43;4.37;;;;;;;1.13;81.17;101894.47;4952640;29;20414;-80
2022/01/21 02:28:18;;;;;;;14.83;4.93;;;;;;;1.13;81.30;101893.59;4954308;29;20509;-80
2022/01/21 02:30:54;;;;;;;12.90;4.70;;;;;;;1.10;81.16;101896.56;4946144;29;20413;-79
2022/01/21 02:33:20;;;;;;;14.50;4.80;;;;;;;1.05;80.92;101907.72;4950847;29;20795;-80
2022/01/21 02:35:45;;;;;;;14.55;4.57;;;;;;;1.07;81.50;101910.22;4950279;29;20421;-79
2022/01/21 02:38:11;;;;;;;18.57;4.67;;;;;;;1.14;81.24;101912.16;4948692;29;20797;-79
2022/01/21 02:40:36;;;;;;;11.03;4.40;;;;;;;1.18;81.05;101912.72;4951788;29;20422;-79
2022/01/21 02:43:02;;;;;;;13.87;4.70;;;;;;;1.24;81.37;101926.31;4953861;28;20437;-79
2022/01/21 02:45:27;;;;;;;13.63;4.20;;;;;;;1.25;81.13;101925.28;4948216;29;20433;-79
2022/01/21 02:47:53;;;;;;;14.33;5.13;;;;;;;1.25;80.81;101927.16;4950696;29;20885;-79
2022/01/21 02:50:18;;;;;;;14.53;4.87;;;;;;;1.18;81.42;101926.91;4949178;29;20423;-78
2022/01/21 02:52:56;;;;;;;14.17;4.30;;;;;;;1.14;81.71;101930.00;4951292;29;20441;-80
2022/01/21 02:55:23;;;;;;;10.43;4.38;;;;;;;1.16;81.27;101931.53;4947925;29;20411;-79
2022/01/21 02:57:48;;;;;;;13.20;5.03;;;;;;;1.19;81.76;101935.72;4946284;29;20460;-79
2022/01/21 03:00:14;;;;;;;10.87;3.93;;;;;;;1.20;81.44;101929.41;4949680;29;20425;-79
2022/01/21 03:02:39;;;;;;;12.33;4.97;;;;;;;1.24;81.50;101947.66;4952302;29;20426;-79
2022/01/21 03:05:11;;;;;;;12.37;4.40;;;;;;;1.22;81.74;101943.47;4950026;29;20432;-79
2022/01/21 03:07:37;;;;;;;10.98;4.63;;;;;;;1.21;82.07;101939.97;4944695;29;20425;-79
2022/01/21 03:10:04;;;;;;;9.47;4.80;;;;;;;1.16;81.59;101931.53;4951321;29;20916;-80
2022/01/21 03:12:29;;;;;;;13.02;4.78;;;;;;;1.13;81.57;101939.84;4953583;29;20401;-79
2022/01/21 03:14:54;;;;;;;17.57;5.30;;;;;;;1.02;81.66;101937.38;4950475;29;20437;-79
2022/01/21 03:17:19;;;;;;;18.23;6.27;;;;;;;0.97;82.01;101939.63;4953265;29;20449;-79
2022/01/21 03:19:45;;;;;;;13.83;5.37;;;;;;;0.92;81.93;101933.91;4951631;29;20500;-79
2022/01/21 03:22:12;;;;;;;14.90;5.77;;;;;;;0.84;82.31;101929.28;4952512;29;20406;-79
2022/01/21 03:24:37;;;;;;;17.90;5.22;;;;;;;0.80;82.70;101935.06;4947890;29;20451;-79
2022/01/21 03:27:03;;;;;;;17.83;5.87;;;;;;;0.74;82.40;101927.63;4949982;29;20496;-79
2022/01/21 03:29:28;;;;;;;18.33;5.47;;;;;;;0.74;82.64;101933.81;4946829;29;20417;-79
2022/01/21 03:31:53;;;;;;;16.00;6.00;;;;;;;0.71;82.67;101944.78;4950296;29;20909;-79
2022/01/21 03:34:19;;;;;;;13.03;5.00;;;;;;;0.67;82.32;101942.53;4952850;29;20421;-79
2022/01/21 03:36:44;;;;;;;12.87;4.47;;;;;;;0.68;82.28;101946.91;4951418;29;20465;-79
2022/01/21 03:39:09;;;;;;;14.80;5.90;;;;;;;0.67;82.78;101937.19;4951032;28;20422;-79
2022/01/21 03:41:35;;;;;;;17.10;5.60;;;;;;;0.64;82.44;101945.50;4951295;29;20421;-79
2022/01/21 03:44:00;;;;;;;17.10;4.63;;;;;;;0.58;82.71;101944.25;4949697;29;20425;-79
2022/01/21 03:46:26;;;;;;;15.37;5.77;;;;;;;0.53;83.06;101942.00;4951213;29;20417;-79
2022/01/21 03:48:51;;;;;;;18.60;6.53;;;;;;;0.51;83.39;101952.00;4953139;29;20409;-79
2022/01/21 03:51:19;;;;;;;17.13;6.40;;;;;;;0.44;83.70;101948.22;4950310;28;20421;-79
2022/01/21 03:53:46;;;;;;;12.05;4.35;;;;;;;0.41;84.30;101939.66;4950998;29;20421;-79
2022/01/21 03:56:12;;;;;;;14.77;4.60;;;;;;;0.40;84.59;101949.47;4951957;29;20435;-79
2022/01/21 03:58:38;;;;;;;14.35;5.25;;;;;;;0.42;83.67;101939.53;4949300;29;20418;-79
2022/01/21 04:01:03;;;;;;;20.40;5.30;;;;;;;0.41;83.85;101948.50;4951904;29;20956;-79
2022/01/21 04:03:29;;;;;;;16.03;5.10;;;;;;;0.44;83.55;101939.38;4933643;29;20446;-79
2022/01/21 04:05:54;;;;;;;16.97;5.17;;;;;;;0.46;83.58;101945.41;4947946;29;20492;-78
2022/01/21 04:08:20;;;;;;;14.03;5.23;;;;;;;0.42;83.10;101942.19;4951408;29;20421;-78
2022/01/21 04:10:48;;;;;;;15.68;5.55;;;;;;;0.41;83.56;101948.50;4943715;28;20490;-78
2022/01/21 04:13:16;;;;;;;10.35;4.93;;;;;;;0.41;83.35;101959.16;4948541;29;20409;-78
2022/01/21 04:15:43;;;;;;;14.55;5.30;;;;;;;0.37;83.49;101962.25;4950122;29;20422;-78
2022/01/21 04:18:09;;;;;;;10.53;4.83;;;;;;;0.36;83.15;101966.75;4953327;29;20410;-78
2022/01/21 04:20:34;;;;;;;15.95;5.13;;;;;;;0.38;83.17;101964.78;4943716;29;20465;-79
2022/01/21 04:22:59;;;;;;;14.90;4.50;;;;;;;0.42;83.30;101963.53;4952549;29;20406;-79
2022/01/21 04:25:25;;;;;;;15.57;5.17;;;;;;;0.47;82.69;101963.09;4951130;29;20426;-77
2022/01/21 04:27:50;;;;;;;18.00;5.30;;;;;;;0.53;82.86;101971.34;4949466;28;20434;-79
2022/01/21 04:30:15;;;;;;;13.33;5.60;;;;;;;0.61;82.46;101986.66;4934083;29;20479;-80
2022/01/21 04:32:41;;;;;;;20.10;6.23;;;;;;;0.61;81.77;101978.66;4952922;29;20401;-79
2022/01/21 04:35:07;;;;;;;13.25;5.05;;;;;;;0.61;81.84;101961.78;4946110;29;20563;-79
2022/01/21 04:37:32;;;;;;;15.75;4.95;;;;;;;0.60;82.22;101965.44;4941298;29;20398;-78
2022/01/21 04:40:12;;;;;;;17.48;4.60;;;;;;;0.61;82.43;101973.31;4932326;29;20916;-79
2022/01/21 04:48:05;;;;;;;15.60;5.83;;;;;;;0.36;83.70;101972.06;4952937;29;21012;-78
2022/01/21 04:50:39;;;;;;;14.63;5.55;;;;;;;0.30;83.91;101967.31;4954602;29;20418;-78
2022/01/21 04:53:06;;;;;;;16.25;5.22;;;;;;;0.30;83.63;101967.31;4954740;29;20480;-78
2022/01/21 04:55:31;;;;;;;12.35;4.70;;;;;;;0.31;83.90;101969.00;4948188;29;20764;-78
2022/01/21 04:57:57;;;;;;;19.33;6.70;;;;;;;0.32;83.45;101967.19;4925334;29;20492;-79
2022/01/21 05:00:22;;;;;;;16.43;6.30;;;;;;;0.34;83.83;101975.88;4951464;29;20473;-79
2022/01/21 05:02:47;;;;;;;20.15;6.80;;;;;;;0.34;83.36;101976.72;4955701;29;20409;-78
2022/01/21 05:05:13;;;;;;;21.50;7.83;;;;;;;0.33;83.55;101976.88;4951288;29;20488;-78
2022/01/21 05:07:40;;;;;;;25.03;12.80;;;;;;;0.30;83.47;101979.78;4937073;29;20480;-79
2022/01/21 05:10:06;;;;;;;12.45;5.82;;;;;;;0.21;83.61;101978.84;4953058;29;20897;-79
2022/01/21 05:12:31;;;;;;;15.77;6.55;;;;;;;0.13;84.03;101984.03;4953617;29;20491;-78
2022/01/21 05:17:23;;;;;;;15.63;5.80;;;;;;;0.16;83.85;102001.56;4954227;29;20413;-78
2022/01/21 05:19:49;;;;;;;13.40;5.78;;;;;;;0.15;83.85;102002.53;4947678;28;20441;-78
2022/01/21 05:22:14;;;;;;;12.67;5.07;;;;;;;0.15;83.99;102005.22;4953149;29;20414;-78
2022/01/21 05:24:39;;;;;;;18.52;5.93;;;;;;;0.11;83.27;101999.31;4937539;29;20417;-78
2022/01/21 05:27:06;;;;;;;13.43;6.07;;;;;;;0.09;83.51;102006.63;4947559;28;20423;-78
2022/01/21 05:29:33;;;;;;;16.08;7.00;;;;;;;0.06;83.75;102000.72;4937302;29;20413;-78
2022/01/21 05:31:59;;;;;;;20.90;6.60;;;;;;;-0.03;83.83;102013.03;4938179;29;20421;-78
2022/01/21 05:34:27;;;;;;;16.63;6.43;;;;;;;-0.06;84.01;102014.16;4941060;29;20410;-78
2022/01/21 05:36:53;;;;;;;17.42;5.80;;;;;;;-0.04;84.53;102022.88;4920357;29;20603;-79
2022/01/21 05:39:19;;;;;;;17.10;6.00;;;;;;;0.01;84.16;102027.78;4946961;28;20505;-78
2022/01/21 05:41:48;;;;;;;24.33;9.45;;;;;;;0.04;84.43;102031.97;4943387;29;20475;-78
2022/01/21 05:47:00;;;;;;;40.65;17.55;;;;;;;0.04;84.49;102029.31;4923549;29;20625;-78
2022/01/21 05:49:27;;;;;;;28.63;11.20;;;;;;;0.03;84.26;102036.50;4931469;29;20416;-77
2022/01/21 05:52:01;;;;;;;19.48;7.57;;;;;;;-0.02;84.12;102023.56;4918201;29;20925;-78
2022/01/21 05:54:26;;;;;;;12.98;5.80;;;;;;;-0.04;84.68;102022.03;4949008;29;20520;-78
2022/01/21 05:56:52;;;;;;;14.85;5.68;;;;;;;-0.06;84.48;102027.50;4948831;28;21177;-78
2022/01/21 05:59:18;;;;;;;16.77;6.30;;;;;;;-0.09;84.06;102025.09;4929895;29;20942;-78
2022/01/21 06:01:43;;;;;;;24.17;8.05;;;;;;;-0.08;84.40;102036.59;4939787;29;20418;-78
2022/01/21 06:04:08;;;;;;;26.60;9.60;;;;;;;-0.09;84.59;102026.91;4942561;28;20417;-79
2022/01/21 06:06:34;;;;;;;23.55;8.80;;;;;;;-0.11;84.47;102029.75;4942509;28;20436;-79
2022/01/21 06:09:01;;;;;;;17.02;7.13;;;;;;;-0.11;84.46;102039.56;4943114;29;22150;-80
2022/01/21 06:11:26;;;;;;;20.33;6.50;;;;;;;-0.14;84.67;102039.81;4942404;29;20414;-79
2022/01/21 06:13:51;;;;;;;14.80;5.90;;;;;;;-0.11;85.31;102040.41;4939493;29;20421;-80
2022/01/21 06:16:18;;;;;;;13.73;5.90;;;;;;;-0.12;84.59;102044.03;4943941;28;20413;-79
2022/01/21 06:18:44;;;;;;;16.85;9.18;;;;;;;-0.14;85.15;102043.34;4943395;28;22282;-79
2022/01/21 06:21:09;;;;;;;31.23;13.10;;;;;;;-0.18;85.01;102052.56;4937978;28;20540;-80
2022/01/21 06:23:35;;;;;;;22.40;9.80;;;;;;;-0.21;85.59;102060.00;4919566;29;20568;-79
2022/01/21 06:26:00;;;;;;;22.10;9.95;;;;;;;-0.21;86.12;102063.50;4943907;28;20834;-79
2022/01/21 06:28:26;;;;;;;17.27;7.15;;;;;;;-0.17;86.11;102056.94;4958998;28;20401;-78
2022/01/21 06:30:52;;;;;;;18.70;7.38;;;;;;;-0.09;86.00;102061.56;4950373;28;20497;-80
2022/01/21 06:33:18;;;;;;;24.30;8.10;;;;;;;-0.01;86.05;102059.91;4948509;29;20847;-78
2022/01/21 06:35:43;;;;;;;31.50;11.30;;;;;;;-0.10;85.60;102052.72;4950559;29;20497;-77
2022/01/21 06:38:09;;;;;;;26.57;12.33;;;;;;;-0.05;86.40;102063.81;4953245;29;20406;-77
2022/01/21 06:40:34;;;;;;;32.00;12.10;;;;;;;0.06;86.24;102068.22;4955471;28;20423;-78
2022/01/21 06:43:02;;;;;;;24.07;11.00;;;;;;;0.12;85.90;102067.66;4952093;29;20477;-78
2022/01/21 06:45:29;;;;;;;19.58;9.52;;;;;;;0.19;85.35;102068.78;4952279;28;20429;-79
2022/01/21 06:47:54;;;;;;;25.10;10.30;;;;;;;0.13;85.52;102072.00;4952406;29;20482;-77
2022/01/21 06:50:20;;;;;;;28.77;9.33;;;;;;;0.18;85.60;102079.56;4945371;29;20417;-78
2022/01/21 06:52:45;;;;;;;19.50;8.70;;;;;;;0.26;85.40;102085.91;4949345;29;20418;-80
2022/01/21 06:55:10;;;;;;;19.60;8.70;;;;;;;0.33;84.95;102083.53;4948324;29;20436;-79
2022/01/21 06:57:39;;;;;;;19.43;8.40;;;;;;;0.35;84.21;102084.22;4953273;29;20413;-78
2022/01/21 07:00:07;;;;;;;20.83;7.70;;;;;;;0.34;83.88;102077.19;4947196;28;20427;-79
2022/01/21 07:02:32;;;;;;;19.30;7.30;;;;;;;0.29;84.57;102084.78;4951045;29;20410;-79
2022/01/21 07:04:57;;;;;;;21.20;7.90;;;;;;;0.32;84.61;102080.03;4951045;29;20425;-80
2022/01/21 07:07:23;;;;;;;40.08;15.93;;;;;;;0.33;84.20;102088.88;4950189;28;20424;-78
2022/01/21 07:09:48;;;;;;;48.40;19.80;;;;;;;0.35;84.40;102090.41;4951860;28;20455;-79
2022/01/21 07:12:14;;;;;;;54.03;23.13;;;;;;;0.43;84.79;102092.34;4945582;29;20901;-78
2022/01/21 07:14:39;;;;;;;24.77;10.33;;;;;;;0.46;84.12;102098.25;4949393;29;20417;-78
2022/01/21 07:17:04;;;;;;;20.63;8.97;;;;;;;0.49;84.01;102092.63;4951336;28;20461;-78
2022/01/21 07:19:30;;;;;;;22.02;8.77;;;;;;;0.51;83.64;102084.50;4949679;28;20825;-78
2022/01/21 07:21:56;;;;;;;22.98;8.75;;;;;;;0.50;83.72;102078.34;4950642;29;20418;-79
2022/01/21 07:24:21;;;;;;;20.90;8.35;;;;;;;0.46;83.69;102078.78;4949414;29;20508;-78
2022/01/21 07:26:47;;;;;;;19.70;9.00;;;;;;;0.41;83.31;102076.50;4948223;29;20901;-79
2022/01/21 07:29:12;;;;;;;20.50;8.80;;;;;;;0.39;83.62;102075.81;4952924;29;20409;-78
2022/01/21 07:31:37;;;;;;;22.53;9.77;;;;;;;0.38;84.19;102079.47;4950290;29;20785;-78
2022/01/21 07:34:06;;;;;;;21.67;10.17;;;;;;;0.38;84.51;102090.13;4952813;29;20406;-80
2022/01/21 07:36:32;;;;;;;31.52;12.57;;;;;;;0.32;84.95;102093.34;4950437;29;20467;-79
2022/01/21 07:38:58;;;;;;;24.98;11.80;;;;;;;0.39;84.65;102094.50;4948501;29;20418;-79
2022/01/21 07:41:23;;;;;;;21.63;11.10;;;;;;;0.49;84.93;102105.16;4951677;29;20421;-78
2022/01/21 07:43:49;;;;;;;19.38;8.70;;;;;;;0.55;84.49;102104.59;4951884;29;20428;-78
2022/01/21 07:46:16;;;;;;;23.75;8.52;;;;;;;0.56;84.88;102100.94;4950508;29;20420;-80
2022/01/21 07:48:41;;;;;;;23.90;8.65;;;;;;;0.62;84.86;102113.72;4950883;29;20429;-78
2022/01/21 07:51:09;;;;;;;23.67;8.53;;;;;;;0.68;84.89;102106.97;4946219;29;20420;-79
2022/01/21 07:53:35;;;;;;;35.78;16.95;;;;;;;0.74;84.56;102117.09;4945162;28;20425;-78
2022/01/21 07:56:01;;;;;;;24.67;11.20;;;;;;;0.84;84.08;102108.09;4918991;29;20437;-78
2022/01/21 07:58:27;;;;;;;16.15;6.93;;;;;;;0.88;83.42;102117.50;4940391;29;20774;-78
2022/01/21 08:00:52;;;;;;;19.35;7.00;;;;;;;0.87;83.57;102114.97;4934304;28;20465;-78
2022/01/21 08:03:18;;;;;;;13.23;6.53;;;;;;;0.85;83.76;102107.13;4946633;29;20790;-78
2022/01/21 08:05:44;;;;;;;22.37;8.00;;;;;;;1.03;83.17;102116.09;4951749;29;20421;-78
2022/01/21 08:08:10;;;;;;;17.83;7.47;;;;;;;1.07;82.98;102105.97;4952274;28;20405;-77
2022/01/21 08:10:35;;;;;;;23.57;9.03;;;;;;;1.13;82.99;102107.22;4946252;29;20417;-79
2022/01/21 08:13:01;;;;;;;26.73;9.87;;;;;;;1.18;82.87;102103.13;4948531;29;20472;-79
2022/01/21 08:15:27;;;;;;;21.67;10.30;;;;;;;1.29;82.48;102102.09;4946150;29;20504;-78
2022/01/21 08:17:52;;;;;;;23.17;9.95;;;;;;;1.33;82.59;102104.34;4950765;29;20483;-79
2022/01/21 08:20:18;;;;;;;17.77;9.17;;;;;;;1.42;82.22;102106.16;4949397;28;20844;-79
2022/01/21 08:22:43;;;;;;;22.97;10.30;;;;;;;1.48;82.00;102100.22;4937510;29;20813;-81
2022/01/21 08:25:09;;;;;;;19.83;9.10;;;;;;;1.57;81.85;102109.22;4933945;29;20541;-80
2022/01/21 08:27:35;;;;;;;22.27;8.38;;;;;;;1.46;82.18;102104.88;4951936;29;20412;-78
2022/01/21 08:30:00;;;;;;;24.00;8.50;;;;;;;1.48;82.13;102108.22;4935482;29;20530;-79
2022/01/21 08:32:26;;;;;;;20.40;8.33;;;;;;;1.43;82.68;102112.34;4936904;28;20517;-79
2022/01/21 08:34:51;;;;;;;28.80;8.23;;;;;;;1.46;82.72;102117.38;4931044;28;20422;-80
2022/01/21 08:37:18;;;;;;;21.03;8.43;;;;;;;1.40;82.53;102110.81;4928771;29;20681;-79
2022/01/21 08:39:43;;;;;;;20.17;8.45;;;;;;;1.33;82.53;102119.53;4930058;28;20421;-80
2022/01/21 08:42:10;;;;;;;18.40;7.80;;;;;;;1.35;82.89;102131.75;4933365;29;20778;-80
2022/01/21 08:44:35;;;;;;;18.17;8.57;;;;;;;1.27;83.01;102128.97;4931259;28;21341;-79
2022/01/21 08:47:01;;;;;;;20.87;7.77;;;;;;;1.14;83.08;102146.28;4915922;29;20434;-78
2022/01/21 08:49:26;;;;;;;17.90;7.30;;;;;;;1.02;83.63;102149.09;4933376;29;20496;-81
2022/01/21 08:51:55;;;;;;;19.47;8.20;;;;;;;1.26;84.05;102153.13;4942335;29;20800;-81
2022/01/21 08:54:22;;;;;;;22.33;10.52;;;;;;;1.45;82.83;102147.75;4921118;29;20456;-82
2022/01/21 08:56:49;;;;;;;43.00;17.30;;;;;;;1.52;82.61;102135.50;4933714;29;20425;-81
2022/01/21 08:59:16;;;;;;;33.53;15.20;;;;;;;1.74;82.46;102126.31;4952963;29;20881;-82
2022/01/21 09:01:42;;;;;;;25.02;11.00;;;;;;;2.27;81.10;102115.75;4942633;29;20417;-82
2022/01/21 09:04:08;;;;;;;15.38;6.35;;;;;;;2.77;78.66;102119.56;4955467;28;20424;-82
2022/01/21 09:06:33;;;;;;;15.43;5.97;;;;;;;3.05;76.78;102113.13;4915777;29;20469;-81
2022/01/21 09:08:59;;;;;;;19.67;7.43;;;;;;;3.09;75.92;102108.31;4929311;29;20472;-81
2022/01/21 09:11:25;;;;;;;17.07;8.07;;;;;;;3.04;76.19;102103.41;4942740;29;20549;-81
2022/01/21 09:13:51;;;;;;;22.15;8.80;;;;;;;2.91;76.97;102094.94;4915009;28;21267;-81
2022/01/21 09:16:18;;;;;;;20.15;7.80;;;;;;;2.84;77.47;102103.75;4933275;28;20420;-82
2022/01/21 09:18:49;;;;;;;19.90;8.13;;;;;;;2.70;77.97;102112.34;4913659;29;20456;-78
2022/01/21 09:21:17;;;;;;;13.90;7.67;;;;;;;2.67;78.57;102126.03;4934890;28;20413;-81
2022/01/21 09:23:42;;;;;;;18.30;7.25;;;;;;;2.60;78.40;102131.16;4932646;28;20453;-80
2022/01/21 09:26:08;;;;;;;21.57;8.30;;;;;;;2.54;79.13;102127.22;4933818;29;20517;-80
2022/01/21 09:28:34;;;;;;;18.08;7.60;;;;;;;2.29;79.42;102132.47;4932042;28;20431;-79
2022/01/21 09:30:59;;;;;;;21.30;7.87;;;;;;;2.29;79.60;102154.72;4930470;28;20418;-80
2022/01/21 09:33:24;;;;;;;17.00;6.95;;;;;;;2.27;80.22;102145.19;4928340;28;20416;-79
2022/01/21 09:35:50;;;;;;;19.37;7.00;;;;;;;2.24;80.15;102145.47;4929421;29;20446;-79
2022/01/21 09:38:16;;;;;;;13.33;6.03;;;;;;;2.31;79.87;102149.22;4916930;29;20453;-79
2022/01/21 09:40:47;;;;;;;13.45;6.72;;;;;;;2.27;80.30;102151.38;4932410;28;20472;-79
2022/01/21 09:43:14;;;;;;;19.40;7.18;;;;;;;2.41;80.10;102148.16;4912392;28;20460;-79
2022/01/21 09:45:41;;;;;;;16.50;6.07;;;;;;;2.71;78.51;102149.63;4931581;29;20835;-80
2022/01/21 09:48:08;;;;;;;20.98;7.13;;;;;;;2.83;77.03;102156.44;4928196;28;20427;-81
2022/01/21 09:50:34;;;;;;;19.10;6.07;;;;;;;2.89;77.23;102152.34;4931372;29;23350;-80
2022/01/21 09:53:01;;;;;;;14.63;5.90;;;;;;;2.78;77.87;102150.72;4940445;28;20429;-81
2022/01/21 09:55:26;;;;;;;14.98;5.72;;;;;;;2.55;79.14;102162.88;4932286;28;20418;-80
2022/01/21 09:57:54;;;;;;;17.40;5.10;;;;;;;2.51;79.63;102170.34;4928379;28;20477;-82
2022/01/21 10:00:21;;;;;;;14.32;6.18;;;;;;;2.48;79.75;102173.34;4917712;29;20510;-80
2022/01/21 10:02:48;;;;;;;14.48;5.43;;;;;;;2.66;79.76;102173.38;4929164;28;20483;-80
2022/01/21 10:05:14;;;;;;;15.50;5.78;;;;;;;2.79;78.87;102178.34;4931299;28;20436;-82
2022/01/21 10:07:41;;;;;;;13.98;6.85;;;;;;;2.92;78.81;102181.47;4917019;29;20424;-80
2022/01/21 10:10:07;;;;;;;17.10;7.90;;;;;;;2.87;78.54;102181.91;4933185;29;20428;-81
2022/01/21 10:12:34;;;;;;;19.20;6.10;;;;;;;2.92;78.43;102186.84;4930352;28;20496;-81
2022/01/21 10:14:59;;;;;;;16.30;6.75;;;;;;;3.06;77.67;102178.25;4929557;29;23258;-80
2022/01/21 10:17:25;;;;;;;20.83;7.90;;;;;;;2.91;77.67;102183.31;4928004;28;20534;-81
2022/01/21 10:19:51;;;;;;;17.40;6.87;;;;;;;3.20;77.04;102187.56;4936061;28;20418;-81
2022/01/21 10:22:23;;;;;;;17.47;7.40;;;;;;;3.46;76.04;102188.44;4941428;29;20505;-80
2022/01/21 10:24:52;;;;;;;18.40;6.82;;;;;;;3.37;76.20;102184.88;4932017;28;20443;-82
2022/01/21 10:27:28;;;;;;;21.73;9.27;;;;;;;3.63;75.50;102195.59;4937305;29;20414;-81
2022/01/21 10:29:54;;;;;;;22.58;8.20;;;;;;;3.65;75.44;102182.91;4946844;29;20457;-81
2022/01/21 10:32:41;;;;;;;23.37;10.10;;;;;;;3.45;76.23;102165.34;4945244;28;20422;-82
2022/01/21 10:35:26;;;;;;;18.02;6.35;;;;;;;3.84;73.80;102166.59;4931445;29;20422;-81
2022/01/21 10:37:52;;;;;;;16.15;5.82;;;;;;;4.12;73.06;102160.00;4945321;29;20409;-79
2022/01/21 10:40:21;;;;;;;19.20;7.75;;;;;;;4.19;73.72;102166.41;4938013;29;20421;-80
2022/01/21 10:42:48;;;;;;;18.92;8.15;;;;;;;4.55;72.06;102161.66;4933277;28;20417;-81
2022/01/21 10:45:14;;;;;;;20.95;8.32;;;;;;;4.55;72.29;102155.44;4932578;28;20425;-79
2022/01/21 10:47:46;;;;;;;18.30;7.63;;;;;;;4.81;72.00;102158.03;4932767;28;20432;-80
2022/01/21 10:50:14;;;;;;;18.00;7.53;;;;;;;4.82;71.61;102157.84;4924214;29;20518;-80
2022/01/21 10:52:51;;;;;;;17.30;7.37;;;;;;;5.14;68.82;102152.47;4930066;29;20480;-81
2022/01/21 10:55:29;;;;;;;17.38;5.93;;;;;;;5.06;69.53;102157.03;4939645;29;20422;-80
2022/01/21 10:58:12;;;;;;;15.45;7.13;;;;;;;4.97;69.46;102158.84;4927624;28;20496;-80
2022/01/21 11:00:55;;;;;;;18.67;7.60;;;;;;;4.75;69.50;102158.66;4928325;29;20812;-80
2022/01/21 11:03:21;;;;;;;17.05;5.90;;;;;;;4.62;71.26;102149.25;4930923;29;20468;-79
2022/01/21 11:05:48;;;;;;;11.87;5.77;;;;;;;4.66;70.80;102141.72;4933145;28;20516;-80
2022/01/21 11:08:15;;;;;;;15.03;6.67;;;;;;;4.65;69.54;102140.03;4928059;28;20450;-80
2022/01/21 11:10:43;;;;;;;18.63;6.60;;;;;;;4.78;69.82;102145.75;4933652;28;20775;-81
2022/01/21 11:13:16;;;;;;;14.15;6.35;;;;;;;5.09;69.43;102154.00;4933355;28;20462;-80
2022/01/21 11:15:44;;;;;;;19.00;5.85;;;;;;;5.37;68.06;102147.25;4944277;29;20421;-81
2022/01/21 11:18:14;;;;;;;16.33;6.90;;;;;;;5.18;69.48;102150.28;4928711;28;20520;-80
2022/01/21 11:20:46;;;;;;;14.23;6.15;;;;;;;5.13;68.51;102141.91;4932399;28;20419;-81
2022/01/21 11:23:12;;;;;;;15.02;5.82;;;;;;;5.13;68.89;102140.06;4938832;29;20938;-80
2022/01/21 11:25:44;;;;;;;17.58;6.18;;;;;;;5.13;68.08;102133.84;4929664;28;20422;-80
2022/01/21 11:28:11;;;;;;;15.23;6.68;;;;;;;5.23;68.72;102130.00;4935560;28;20414;-80
2022/01/21 11:30:37;;;;;;;20.30;7.57;;;;;;;5.41;69.06;102137.84;4938450;28;20428;-80
2022/01/21 11:33:03;;;;;;;18.52;7.28;;;;;;;5.23;69.30;102131.84;4929521;29;21018;-81
2022/01/21 11:35:29;;;;;;;14.80;6.55;;;;;;;5.26;69.45;102133.34;4930313;28;20593;-81
2022/01/21 11:37:55;;;;;;;16.33;7.22;;;;;;;5.41;69.14;102124.41;4916728;29;20489;-81
2022/01/21 11:40:21;;;;;;;14.68;5.68;;;;;;;5.12;68.76;102129.47;4943073;29;20512;-81
2022/01/21 11:42:47;;;;;;;12.88;6.13;;;;;;;5.21;69.31;102120.41;4914940;29;20782;-79
2022/01/21 11:45:31;;;;;;;15.25;6.20;;;;;;;5.10;69.99;102115.38;4943651;28;20429;-79
2022/01/21 11:50:42;;;;;;;14.85;6.10;;;;;;;5.90;67.13;102111.69;4928474;28;20440;-81
2022/01/21 11:53:07;;;;;;;12.97;5.43;;;;;;;6.13;66.61;102123.34;4935817;29;20429;-79
2022/01/21 11:55:36;;;;;;;15.20;4.47;;;;;;;6.21;65.93;102117.94;4939796;28;20844;-79
2022/01/21 11:58:21;;;;;;;15.47;5.80;;;;;;;5.59;67.22;102116.13;4929085;28;20556;-80
2022/01/21 12:00:49;;;;;;;11.38;5.30;;;;;;;5.73;67.36;102118.94;4934150;28;20618;-79
2022/01/21 12:03:15;;;;;;;14.00;5.38;;;;;;;5.66;67.57;102126.00;4932914;28;20457;-81
2022/01/21 12:05:41;;;;;;;11.23;4.30;;;;;;;5.89;65.45;102126.19;4933552;28;21384;-80
2022/01/21 12:08:07;;;;;;;12.90;5.53;;;;;;;5.97;66.04;102115.38;4934451;28;20421;-81
2022/01/21 12:10:42;;;;;;;14.35;5.35;;;;;;;5.92;66.50;102119.59;4935360;29;20411;-81
2022/01/21 12:13:14;;;;;;;20.90;5.85;;;;;;;5.81;66.32;102101.94;4937125;29;20926;-82
2022/01/21 12:19:08;;;;;;;11.52;5.47;;;;;;;5.54;66.97;102105.88;4938087;28;20515;-83
2022/01/21 12:21:38;;;;;;;16.27;4.30;;;;;;;5.47;67.11;102098.66;4947083;28;20418;-81